Time;durP1;ratioP1;P1;durP2;ratioP2;P2;SDS_P1;SDS_P2;PMS_P1;PMS_P2;Temp;Humidity;BMP_temperature;BMP_pressure;BME280_temperature;BME280_humidity;BME280_pressure;Samples;Min_cycle;Max_cycle;Signal;HPM_P1;HPM_P2
2023/08/06 00:00:57;;;;;;;19.30;17.23;;;14.20;99.90;;;;;;7370053;19;20047;-61
2023/08/06 00:03:24;;;;;;;23.40;18.33;;;14.20;99.90;;;;;;7368704;19;20026;-61
2023/08/06 00:05:50;;;;;;;20.15;17.67;;;14.20;99.90;;;;;;7369239;19;20019;-61
2023/08/06 00:08:16;;;;;;;19.58;17.50;;;14.20;99.90;;;;;;7369510;19;20478;-61
2023/08/06 00:10:42;;;;;;;22.08;19.17;;;14.20;99.90;;;;;;7374190;19;20018;-61
2023/08/06 00:13:10;;;;;;;20.90;16.95;;;14.20;99.90;;;;;;7379069;19;20114;-61
2023/08/06 00:15:36;;;;;;;19.17;16.08;;;14.20;99.90;;;;;;7373301;19;20033;-61
2023/08/06 00:18:03;;;;;;;20.83;17.25;;;14.20;99.90;;;;;;7372766;19;20082;-62
2023/08/06 00:20:29;;;;;;;20.50;18.00;;;14.20;99.90;;;;;;7375659;19;20028;-61
2023/08/06 00:22:58;;;;;;;19.35;17.13;;;14.20;99.90;;;;;;7376407;19;20038;-65
2023/08/06 00:25:24;;;;;;;21.15;17.67;;;14.20;99.90;;;;;;7376950;19;20077;-68
2023/08/06 00:27:50;;;;;;;18.70;16.73;;;14.20;99.90;;;;;;7377262;19;20028;-63
2023/08/06 00:30:16;;;;;;;18.27;16.13;;;14.20;99.90;;;;;;7375713;19;20041;-64
2023/08/06 00:32:44;;;;;;;18.35;16.42;;;14.20;99.90;;;;;;7376540;19;20014;-61
2023/08/06 00:35:13;;;;;;;19.15;16.27;;;14.20;99.90;;;;;;7375273;19;20099;-65
2023/08/06 00:37:40;;;;;;;18.00;16.17;;;14.20;99.90;;;;;;7376545;19;20021;-65
2023/08/06 00:40:08;;;;;;;19.05;17.05;;;14.10;99.90;;;;;;7378736;19;20385;-65
2023/08/06 00:42:34;;;;;;;18.23;15.18;;;14.10;99.90;;;;;;7377113;19;20014;-65
2023/08/06 00:45:01;;;;;;;18.50;15.02;;;14.20;99.90;;;;;;7379242;19;20026;-67
2023/08/06 00:47:28;;;;;;;18.77;15.75;;;14.20;99.90;;;;;;7372742;19;20484;-65
2023/08/06 00:49:54;;;;;;;20.08;17.92;;;14.10;99.90;;;;;;7376266;19;20386;-66
2023/08/06 00:52:21;;;;;;;17.42;15.45;;;14.10;99.90;;;;;;7377066;19;20502;-65
2023/08/06 00:54:47;;;;;;;17.58;15.63;;;14.10;99.90;;;;;;7375942;19;20023;-65
2023/08/06 00:57:13;;;;;;;16.23;14.52;;;14.10;99.90;;;;;;7376008;19;20025;-65
2023/08/06 00:59:40;;;;;;;17.23;15.45;;;14.10;99.90;;;;;;7377545;19;20022;-64
2023/08/06 01:02:06;;;;;;;17.30;15.43;;;14.10;99.90;;;;;;7378423;19;20474;-64
2023/08/06 01:04:33;;;;;;;17.25;15.45;;;14.10;99.90;;;;;;7376481;19;20415;-61
2023/08/06 01:07:16;;;;;;;20.83;16.42;;;14.10;99.90;;;;;;7369786;19;20446;-61
2023/08/06 01:09:59;;;;;;;17.73;15.85;;;14.10;99.90;;;;;;7375658;19;20054;-61
2023/08/06 01:13:02;;;;;;;21.00;16.02;;;14.10;99.90;;;;;;7373137;19;20110;-61
2023/08/06 01:15:51;;;;;;;20.02;15.63;;;14.00;99.90;;;;;;7370275;19;20345;-61
2023/08/06 01:18:18;;;;;;;18.90;17.00;;;14.00;99.90;;;;;;7365227;19;20469;-65
2023/08/06 01:20:44;;;;;;;18.02;15.25;;;14.00;99.90;;;;;;7371251;19;20118;-65
2023/08/06 01:23:11;;;;;;;16.67;14.65;;;14.00;99.90;;;;;;7372341;19;20014;-65
2023/08/06 01:25:53;;;;;;;15.20;12.73;;;13.90;99.90;;;;;;7371719;19;20018;-65
2023/08/06 01:28:52;;;;;;;16.50;14.80;;;13.90;99.90;;;;;;7370676;19;20077;-65
2023/08/06 01:31:24;;;;;;;18.17;15.23;;;13.90;99.90;;;;;;7366931;19;20018;-65
2023/08/06 01:33:52;;;;;;;18.55;14.35;;;13.90;99.90;;;;;;7372774;19;20022;-65
2023/08/06 01:36:20;;;;;;;15.25;13.25;;;13.80;99.90;;;;;;7372136;19;20025;-65
2023/08/06 01:38:46;;;;;;;19.00;14.52;;;13.80;99.90;;;;;;7370503;19;20495;-65
2023/08/06 01:41:13;;;;;;;16.42;14.73;;;13.80;99.90;;;;;;7369052;19;20497;-65
2023/08/06 01:43:39;;;;;;;17.83;14.45;;;13.70;99.90;;;;;;7370822;19;20415;-65
2023/08/06 01:46:08;;;;;;;15.60;13.85;;;13.70;99.90;;;;;;7371956;19;20018;-61
2023/08/06 01:48:35;;;;;;;19.38;15.88;;;13.70;99.90;;;;;;7368141;19;20018;-61
2023/08/06 01:51:01;;;;;;;18.13;16.17;;;13.70;99.90;;;;;;7369246;19;20046;-65
2023/08/06 01:53:28;;;;;;;17.65;15.57;;;13.70;99.90;;;;;;7368645;19;20018;-62
2023/08/06 01:55:54;;;;;;;18.30;14.85;;;13.70;99.90;;;;;;7374047;19;20493;-64
2023/08/06 01:58:20;;;;;;;18.90;15.48;;;13.70;99.90;;;;;;7370065;19;20029;-61
2023/08/06 02:00:46;;;;;;;18.02;15.57;;;13.70;99.90;;;;;;7365927;19;20019;-60
2023/08/06 02:03:12;;;;;;;17.92;15.43;;;13.70;99.90;;;;;;7370093;19;20085;-64
2023/08/06 02:05:39;;;;;;;17.45;15.52;;;13.70;99.90;;;;;;7372893;19;20018;-67
2023/08/06 02:08:07;;;;;;;23.52;16.13;;;13.70;99.90;;;;;;7368230;19;20106;-65
2023/08/06 02:10:33;;;;;;;21.73;17.02;;;13.70;99.90;;;;;;7366740;19;20022;-65
2023/08/06 02:13:00;;;;;;;19.08;16.27;;;13.70;99.90;;;;;;7368967;19;20892;-65
2023/08/06 02:15:26;;;;;;;20.10;16.67;;;13.70;99.90;;;;;;7370878;19;20022;-65
2023/08/06 02:17:53;;;;;;;21.77;17.40;;;13.80;99.90;;;;;;7362512;19;20014;-65
2023/08/06 02:20:19;;;;;;;21.73;17.15;;;13.80;99.90;;;;;;7371527;19;20010;-64
2023/08/06 02:22:46;;;;;;;20.25;17.42;;;13.80;99.90;;;;;;7368695;19;20014;-65
2023/08/06 02:25:12;;;;;;;19.13;17.08;;;13.80;99.90;;;;;;7370449;19;20634;-65
2023/08/06 02:27:38;;;;;;;22.88;17.90;;;13.80;99.90;;;;;;7370749;19;20042;-65
2023/08/06 02:30:06;;;;;;;20.15;16.48;;;13.80;99.90;;;;;;7368191;19;20572;-65
2023/08/06 02:32:35;;;;;;;19.58;17.55;;;13.80;99.90;;;;;;7366308;19;20516;-65
2023/08/06 02:35:02;;;;;;;20.35;17.05;;;13.80;99.90;;;;;;7366642;19;20076;-65
2023/08/06 02:37:28;;;;;;;20.88;18.20;;;13.80;99.90;;;;;;7368691;19;20502;-65
2023/08/06 02:39:54;;;;;;;21.08;16.83;;;13.90;99.90;;;;;;7369038;19;20022;-60
2023/08/06 02:42:21;;;;;;;20.45;17.92;;;13.80;99.90;;;;;;7369178;19;20604;-60
2023/08/06 02:44:47;;;;;;;20.38;18.05;;;13.80;99.90;;;;;;7368782;19;20019;-60
2023/08/06 02:47:13;;;;;;;21.05;18.27;;;13.90;99.90;;;;;;7367941;19;20015;-66
2023/08/06 02:49:39;;;;;;;20.23;18.13;;;13.80;99.90;;;;;;7368861;19;20717;-60
2023/08/06 02:52:06;;;;;;;25.67;19.17;;;13.80;99.90;;;;;;7366565;19;20025;-64
2023/08/06 02:54:33;;;;;;;22.23;18.73;;;13.90;99.90;;;;;;7369711;19;20022;-60
2023/08/06 02:57:00;;;;;;;24.33;18.80;;;13.90;99.90;;;;;;7361543;19;20029;-64
2023/08/06 02:59:32;;;;;;;24.45;19.35;;;13.90;99.90;;;;;;7367689;19;20538;-60
2023/08/06 03:02:08;;;;;;;21.08;18.40;;;13.90;99.90;;;;;;7366248;19;20827;-60
2023/08/06 03:04:54;;;;;;;23.10;19.25;;;13.90;99.90;;;;;;7370325;19;20019;-61
2023/08/06 03:07:23;;;;;;;23.60;19.67;;;14.00;99.90;;;;;;7365772;19;20011;-61
2023/08/06 03:09:55;;;;;;;24.77;19.67;;;14.00;99.90;;;;;;7366939;19;20519;-61
2023/08/06 03:12:21;;;;;;;23.77;20.48;;;14.00;99.90;;;;;;7366061;19;20032;-61
2023/08/06 03:14:48;;;;;;;23.65;19.45;;;13.90;99.90;;;;;;7367853;19;20018;-61
2023/08/06 03:17:15;;;;;;;22.90;19.35;;;13.90;99.90;;;;;;7369785;19;20026;-61
2023/08/06 03:19:43;;;;;;;22.60;18.50;;;13.80;99.90;;;;;;7369572;19;20029;-61
2023/08/06 03:22:10;;;;;;;22.98;19.15;;;13.80;99.90;;;;;;7370002;19;20486;-61
2023/08/06 03:24:38;;;;;;;26.08;20.45;;;13.80;99.90;;;;;;7368519;19;20509;-61
2023/08/06 03:27:05;;;;;;;23.95;19.60;;;13.70;99.90;;;;;;7367310;19;20380;-61
2023/08/06 03:29:32;;;;;;;21.95;19.63;;;13.60;99.90;;;;;;7369035;19;20018;-61
2023/08/06 03:32:01;;;;;;;25.08;19.48;;;13.60;99.90;;;;;;7368073;19;20022;-61
2023/08/06 03:34:28;;;;;;;24.88;19.65;;;13.60;99.90;;;;;;7368599;19;20014;-62
2023/08/06 03:36:54;;;;;;;23.30;19.15;;;13.60;99.90;;;;;;7366713;19;20332;-61
2023/08/06 03:39:20;;;;;;;24.70;19.30;;;13.50;99.90;;;;;;7366813;19;20030;-61
2023/08/06 03:41:46;;;;;;;34.22;19.92;;;13.50;99.90;;;;;;7367132;19;20015;-63
2023/08/06 03:44:13;;;;;;;27.48;20.63;;;13.40;99.90;;;;;;7372007;19;20417;-61
2023/08/06 03:46:40;;;;;;;24.63;21.13;;;13.40;99.90;;;;;;7373983;19;20109;-61
2023/08/06 03:49:08;;;;;;;27.52;20.02;;;13.40;99.90;;;;;;7371821;19;20565;-61
2023/08/06 03:51:34;;;;;;;24.45;21.55;;;13.40;99.90;;;;;;7376004;19;20379;-61
2023/08/06 03:54:02;;;;;;;23.02;20.52;;;13.40;99.90;;;;;;7374472;19;20059;-61
2023/08/06 03:56:28;;;;;;;27.33;22.95;;;13.40;99.90;;;;;;7374396;19;20014;-61
2023/08/06 03:58:54;;;;;;;35.15;22.77;;;13.40;99.90;;;;;;7374292;19;20014;-64
2023/08/06 04:01:20;;;;;;;26.40;20.90;;;13.40;99.90;;;;;;7373761;19;20022;-64
2023/08/06 04:03:48;;;;;;;29.88;21.67;;;13.40;99.90;;;;;;7374120;19;20049;-65
2023/08/06 04:06:14;;;;;;;32.42;23.00;;;13.50;99.90;;;;;;7374107;19;20127;-61
2023/08/06 04:08:41;;;;;;;30.92;21.95;;;13.50;99.90;;;;;;7374434;19;20022;-64
2023/08/06 04:11:08;;;;;;;28.75;22.15;;;13.50;99.90;;;;;;7375014;19;20383;-64
2023/08/06 04:13:34;;;;;;;28.83;23.13;;;13.50;99.90;;;;;;7373631;19;20026;-61
2023/08/06 04:16:02;;;;;;;29.63;23.30;;;13.60;99.90;;;;;;7371109;19;20923;-61
2023/08/06 04:18:28;;;;;;;29.17;24.73;;;13.60;99.90;;;;;;7374107;19;20011;-61
2023/08/06 04:20:57;;;;;;;28.45;22.77;;;13.60;99.90;;;;;;7369776;19;20540;-61
2023/08/06 04:23:24;;;;;;;29.33;22.77;;;13.60;99.90;;;;;;7372848;19;20023;-61
2023/08/06 04:25:57;;;;;;;29.60;23.60;;;13.60;99.90;;;;;;7368605;19;20021;-61
2023/08/06 04:28:24;;;;;;;26.73;22.52;;;13.60;99.90;;;;;;7372538;19;20459;-62
2023/08/06 04:30:53;;;;;;;28.20;22.48;;;13.60;99.90;;;;;;7371316;19;20297;-61
2023/08/06 04:33:20;;;;;;;27.10;23.02;;;13.70;99.90;;;;;;7372564;19;20015;-61
2023/08/06 04:35:47;;;;;;;27.13;22.27;;;13.70;99.90;;;;;;7371782;19;20042;-61
2023/08/06 04:38:13;;;;;;;29.73;22.67;;;13.80;99.90;;;;;;7370857;19;20029;-60
2023/08/06 04:40:40;;;;;;;28.77;21.92;;;13.80;99.90;;;;;;7372164;19;20496;-60
2023/08/06 04:43:07;;;;;;;26.15;22.17;;;13.80;99.90;;;;;;7367007;19;20018;-61
2023/08/06 04:45:34;;;;;;;28.10;23.10;;;13.80;99.90;;;;;;7365473;19;20015;-59
2023/08/06 04:48:00;;;;;;;27.02;21.70;;;13.80;99.90;;;;;;7373642;19;20015;-61
2023/08/06 04:50:27;;;;;;;25.80;20.92;;;13.80;99.90;;;;;;7368072;19;20504;-60
2023/08/06 04:52:54;;;;;;;27.05;22.02;;;13.80;99.90;;;;;;7371529;19;20026;-61
2023/08/06 04:55:20;;;;;;;22.88;20.35;;;13.80;99.90;;;;;;7372038;19;20014;-61
2023/08/06 04:57:47;;;;;;;28.63;21.88;;;13.80;99.90;;;;;;7373428;19;20018;-60
2023/08/06 05:00:13;;;;;;;23.50;19.67;;;13.80;99.90;;;;;;7374316;19;20014;-61
2023/08/06 05:02:39;;;;;;;22.85;20.40;;;13.90;99.90;;;;;;7372608;19;20540;-61
2023/08/06 05:05:05;;;;;;;27.45;23.05;;;13.90;99.90;;;;;;7369556;19;20082;-60
2023/08/06 05:07:32;;;;;;;24.73;22.05;;;13.90;99.90;;;;;;7372603;19;20022;-60
2023/08/06 05:09:58;;;;;;;24.10;21.50;;;14.00;99.90;;;;;;7376514;19;21230;-65
2023/08/06 05:12:24;;;;;;;22.60;20.20;;;14.00;99.90;;;;;;7370846;19;20042;-65
2023/08/06 05:14:51;;;;;;;25.05;21.95;;;14.10;99.90;;;;;;7371565;19;20022;-65
2023/08/06 05:17:17;;;;;;;24.50;21.10;;;14.20;99.90;;;;;;7370231;19;20358;-65
2023/08/06 05:19:43;;;;;;;23.65;21.17;;;14.30;99.90;;;;;;7377345;19;20504;-65
2023/08/06 05:22:10;;;;;;;24.13;21.13;;;14.40;99.90;;;;;;7370347;19;20016;-65
2023/08/06 05:24:36;;;;;;;24.55;21.23;;;14.60;99.90;;;;;;7372077;19;20035;-66
2023/08/06 05:27:03;;;;;;;20.83;18.80;;;14.80;99.90;;;;;;7369839;19;20022;-65
2023/08/06 05:29:29;;;;;;;20.85;18.85;;;15.00;99.90;;;;;;7374233;19;20029;-65
2023/08/06 05:31:56;;;;;;;20.63;18.50;;;15.00;99.90;;;;;;7368197;19;20374;-65
2023/08/06 05:34:22;;;;;;;20.35;18.30;;;15.10;99.90;;;;;;7369669;19;20015;-65
2023/08/06 05:36:48;;;;;;;18.25;16.42;;;15.20;99.90;;;;;;7348488;19;20014;-65
2023/08/06 05:39:14;;;;;;;20.23;18.10;;;15.20;99.90;;;;;;7368072;19;20026;-64
2023/08/06 05:41:41;;;;;;;18.05;16.35;;;15.20;99.90;;;;;;7367470;19;21078;-64
2023/08/06 05:44:07;;;;;;;19.33;17.48;;;15.20;99.90;;;;;;7371915;19;20037;-64
2023/08/06 05:46:33;;;;;;;23.00;18.83;;;15.10;99.90;;;;;;7369193;19;20014;-66
2023/08/06 05:48:59;;;;;;;20.42;18.42;;;15.10;99.90;;;;;;7370817;19;20014;-65
2023/08/06 05:51:27;;;;;;;21.10;18.98;;;15.10;99.90;;;;;;7373370;19;20027;-66
2023/08/06 05:53:53;;;;;;;20.63;18.42;;;15.00;99.90;;;;;;7371853;19;20488;-65
2023/08/06 05:56:19;;;;;;;23.15;20.73;;;15.00;99.90;;;;;;7373853;19;20370;-66
2023/08/06 05:58:47;;;;;;;24.45;19.67;;;14.90;99.90;;;;;;7375733;19;20372;-64
2023/08/06 06:01:14;;;;;;;22.35;18.67;;;14.90;99.90;;;;;;7375458;19;20027;-64
2023/08/06 06:03:40;;;;;;;20.83;18.75;;;14.90;99.90;;;;;;7369885;19;20482;-65
2023/08/06 06:06:07;;;;;;;21.60;19.50;;;15.00;99.90;;;;;;7368531;19;20023;-65
2023/08/06 06:08:33;;;;;;;20.58;18.58;;;14.90;99.90;;;;;;7367397;19;20117;-64
2023/08/06 06:11:00;;;;;;;20.33;18.33;;;14.90;99.90;;;;;;7369160;19;20046;-64
2023/08/06 06:13:26;;;;;;;19.65;17.75;;;15.00;99.90;;;;;;7370778;19;20080;-64
2023/08/06 06:15:56;;;;;;;21.10;19.00;;;15.00;99.90;;;;;;7368597;19;20056;-63
2023/08/06 06:18:22;;;;;;;20.88;18.88;;;15.10;99.90;;;;;;7371791;19;20029;-64
2023/08/06 06:20:48;;;;;;;19.45;17.63;;;15.00;99.90;;;;;;7368109;19;20014;-63
2023/08/06 06:23:15;;;;;;;18.92;17.05;;;15.10;99.90;;;;;;7367359;19;20106;-64
2023/08/06 06:25:43;;;;;;;23.30;21.00;;;15.20;99.90;;;;;;7367784;19;20442;-63
2023/08/06 06:28:09;;;;;;;30.60;27.65;;;15.30;99.90;;;;;;7368535;19;20097;-63
2023/08/06 06:30:36;;;;;;;28.77;25.85;;;15.30;99.90;;;;;;7367445;19;21454;-64
2023/08/06 06:33:02;;;;;;;30.50;27.50;;;15.40;99.90;;;;;;7365118;19;20022;-64
2023/08/06 06:35:28;;;;;;;28.70;25.83;;;15.50;99.90;;;;;;7365179;19;20358;-64
2023/08/06 06:37:55;;;;;;;22.38;19.92;;;15.50;99.90;;;;;;7365335;19;20018;-65
2023/08/06 06:40:21;;;;;;;33.88;30.38;;;15.60;99.90;;;;;;7369241;19;20014;-66
2023/08/06 06:42:47;;;;;;;21.48;19.42;;;15.70;99.90;;;;;;7369544;19;20374;-64
2023/08/06 06:45:14;;;;;;;24.63;22.23;;;15.80;99.90;;;;;;7367638;19;20023;-63
2023/08/06 06:47:41;;;;;;;21.30;19.40;;;15.90;99.90;;;;;;7369069;19;20085;-64
2023/08/06 06:50:08;;;;;;;19.13;17.33;;;16.00;99.90;;;;;;7365382;19;20042;-64
2023/08/06 06:52:34;;;;;;;19.42;17.60;;;16.00;99.90;;;;;;7369427;19;20078;-66
2023/08/06 06:55:00;;;;;;;17.38;15.88;;;16.10;99.90;;;;;;7367592;19;20018;-67
2023/08/06 06:57:26;;;;;;;36.50;32.75;;;16.20;99.90;;;;;;7370802;19;20474;-62
2023/08/06 06:59:53;;;;;;;18.20;16.52;;;16.30;99.90;;;;;;7366084;19;20110;-65
2023/08/06 07:02:19;;;;;;;76.18;68.78;;;16.50;99.90;;;;;;7367336;19;20010;-64
2023/08/06 07:04:45;;;;;;;18.77;16.98;;;16.60;99.90;;;;;;7370948;19;20019;-62
2023/08/06 07:07:12;;;;;;;29.10;26.20;;;16.70;99.90;;;;;;7364375;19;20024;-62
2023/08/06 07:09:38;;;;;;;16.00;14.45;;;16.80;99.90;;;;;;7368334;19;20029;-62
2023/08/06 07:12:05;;;;;;;14.88;13.38;;;16.80;99.90;;;;;;7367244;19;20089;-62
2023/08/06 07:14:31;;;;;;;25.58;23.13;;;16.90;99.90;;;;;;7366084;19;20453;-63
2023/08/06 07:16:57;;;;;;;14.13;12.70;;;17.00;99.90;;;;;;7367002;19;20033;-63
2023/08/06 07:19:23;;;;;;;24.65;22.27;;;17.00;99.90;;;;;;7376249;19;20483;-63
2023/08/06 07:21:50;;;;;;;112.75;101.65;;;17.10;99.90;;;;;;7375280;19;20014;-64
2023/08/06 07:24:17;;;;;;;66.85;60.22;;;17.20;99.90;;;;;;7373364;19;20018;-63
2023/08/06 07:26:43;;;;;;;50.53;45.78;;;17.30;99.90;;;;;;7375879;19;20470;-63
2023/08/06 07:29:09;;;;;;;13.70;12.43;;;17.40;99.90;;;;;;7375274;19;20500;-63
2023/08/06 07:31:36;;;;;;;28.83;26.13;;;17.30;99.90;;;;;;7377483;19;20390;-63
2023/08/06 07:34:02;;;;;;;13.43;12.13;;;17.90;99.90;;;;;;7374693;19;20401;-65
2023/08/06 07:36:29;;;;;;;23.42;21.30;;;18.30;99.90;;;;;;7370549;19;20576;-62
2023/08/06 07:38:56;;;;;;;13.18;12.07;;;18.40;99.90;;;;;;7377289;19;20057;-63
2023/08/06 07:41:23;;;;;;;14.25;12.95;;;18.50;99.90;;;;;;7380063;19;20019;-63
2023/08/06 07:43:49;;;;;;;12.43;11.23;;;18.50;99.90;;;;;;7377077;19;20513;-64
2023/08/06 07:46:15;;;;;;;16.52;14.88;;;18.80;99.90;;;;;;7378545;19;20014;-64
2023/08/06 07:48:42;;;;;;;11.32;10.23;;;19.10;99.90;;;;;;7378111;19;20014;-63
2023/08/06 07:51:08;;;;;;;11.98;10.88;;;19.10;99.90;;;;;;7377760;19;20466;-63
2023/08/06 07:53:34;;;;;;;27.77;25.23;;;19.00;99.90;;;;;;7374876;19;20019;-61
2023/08/06 07:56:02;;;;;;;18.60;16.88;;;18.70;99.90;;;;;;7369574;19;20524;-63
2023/08/06 07:58:31;;;;;;;36.08;32.67;;;18.60;99.90;;;;;;7378636;19;20015;-63
2023/08/06 08:00:58;;;;;;;58.03;52.05;;;18.50;99.90;;;;;;7378744;19;20569;-63
2023/08/06 08:03:24;;;;;;;23.10;20.88;;;18.40;99.90;;;;;;7377812;19;20130;-64
2023/08/06 08:05:54;;;;;;;18.83;17.10;;;18.30;99.90;;;;;;7376754;19;20026;-63
2023/08/06 08:08:20;;;;;;;37.78;34.22;;;18.40;99.90;;;;;;7378948;19;20432;-64
2023/08/06 08:10:46;;;;;;;20.85;18.90;;;18.40;99.90;;;;;;7375126;19;20018;-63
2023/08/06 08:13:12;;;;;;;12.77;11.65;;;18.40;99.90;;;;;;7378068;19;20038;-63
2023/08/06 08:15:39;;;;;;;23.88;21.63;;;18.20;99.90;;;;;;7374864;19;20015;-63
2023/08/06 08:18:05;;;;;;;10.50;9.60;;;18.20;99.90;;;;;;7378106;19;20030;-64
2023/08/06 08:20:32;;;;;;;11.77;10.57;;;18.20;99.90;;;;;;7377328;19;20037;-64
2023/08/06 08:23:00;;;;;;;10.10;9.10;;;18.20;99.90;;;;;;7377802;19;20030;-62
2023/08/06 08:25:28;;;;;;;10.43;9.52;;;18.20;99.90;;;;;;7376547;19;20485;-64
2023/08/06 08:27:55;;;;;;;10.63;9.60;;;18.30;99.90;;;;;;7378100;19;20041;-61
2023/08/06 08:30:22;;;;;;;11.65;10.57;;;18.30;99.90;;;;;;7372182;19;20522;-61
2023/08/06 08:32:49;;;;;;;10.10;9.10;;;18.30;99.90;;;;;;7374241;19;20015;-63
2023/08/06 08:35:15;;;;;;;14.90;13.57;;;18.40;99.90;;;;;;7376548;19;20025;-61
2023/08/06 08:37:43;;;;;;;18.05;16.40;;;18.50;99.90;;;;;;7375211;19;20518;-63
2023/08/06 08:40:11;;;;;;;12.18;10.98;;;18.50;99.90;;;;;;7375033;19;20015;-62
2023/08/06 08:42:37;;;;;;;15.45;14.00;;;18.50;99.90;;;;;;7375466;19;20010;-62
2023/08/06 08:45:06;;;;;;;19.20;17.23;;;18.70;99.90;;;;;;7377789;19;20018;-62
2023/08/06 08:47:33;;;;;;;23.40;21.23;;;18.60;99.90;;;;;;7372021;19;20476;-61
2023/08/06 08:50:00;;;;;;;16.55;14.88;;;18.60;99.90;;;;;;7371839;19;20501;-62
2023/08/06 08:52:30;;;;;;;9.25;8.38;;;18.70;99.90;;;;;;7371266;19;20018;-62
2023/08/06 08:54:57;;;;;;;9.55;8.73;;;18.70;99.90;;;;;;7374313;19;20026;-61
2023/08/06 08:57:23;;;;;;;11.50;8.57;;;18.80;99.90;;;;;;7375843;19;20011;-61
2023/08/06 08:59:50;;;;;;;8.98;8.07;;;19.00;99.90;;;;;;7372603;19;20081;-62
2023/08/06 09:02:17;;;;;;;10.90;9.88;;;19.10;99.90;;;;;;7375247;19;20064;-64
2023/08/06 09:04:46;;;;;;;7.47;6.82;;;19.30;99.90;;;;;;7373956;19;20010;-62
2023/08/06 09:07:17;;;;;;;16.92;15.27;;;19.20;99.90;;;;;;7371296;19;20010;-62
2023/08/06 09:09:48;;;;;;;8.32;7.47;;;19.30;99.90;;;;;;7375318;19;20014;-64
2023/08/06 09:12:16;;;;;;;8.07;6.57;;;19.50;99.90;;;;;;7376241;19;20021;-62
2023/08/06 09:14:42;;;;;;;7.43;6.70;;;19.60;99.90;;;;;;7373479;19;20360;-68
2023/08/06 09:17:12;;;;;;;7.30;6.60;;;19.60;99.90;;;;;;7372762;19;20505;-64
2023/08/06 09:19:45;;;;;;;8.00;7.00;;;19.60;99.90;;;;;;7377343;19;20115;-61
2023/08/06 09:22:13;;;;;;;10.52;7.68;;;19.60;99.90;;;;;;7376881;19;20011;-61
2023/08/06 09:24:43;;;;;;;6.43;5.82;;;19.70;99.90;;;;;;7374779;19;20011;-62
2023/08/06 09:27:12;;;;;;;7.55;6.85;;;19.70;99.90;;;;;;7370783;19;20396;-62
2023/08/06 09:29:45;;;;;;;7.00;6.00;;;19.90;99.90;;;;;;7373674;19;20468;-62
2023/08/06 09:32:13;;;;;;;9.75;6.60;;;19.90;99.90;;;;;;7372426;19;20460;-61
2023/08/06 09:34:41;;;;;;;12.70;11.32;;;19.90;99.90;;;;;;7374855;19;20048;-62
2023/08/06 09:37:10;;;;;;;7.68;6.75;;;20.00;99.90;;;;;;7371627;19;20021;-62
2023/08/06 09:39:38;;;;;;;7.15;6.45;;;20.10;99.90;;;;;;7374972;19;20019;-61
2023/08/06 09:42:05;;;;;;;7.38;6.68;;;20.20;99.90;;;;;;7375504;19;20022;-61
2023/08/06 09:44:33;;;;;;;15.57;13.95;;;20.20;99.90;;;;;;7376083;19;20098;-62
2023/08/06 09:47:03;;;;;;;7.00;6.05;;;20.30;99.90;;;;;;7373491;19;20019;-62
2023/08/06 09:49:33;;;;;;;7.47;6.05;;;20.40;99.90;;;;;;7375306;19;20019;-62
2023/08/06 09:52:00;;;;;;;6.32;5.60;;;20.40;99.90;;;;;;7375891;19;20515;-63
2023/08/06 09:54:28;;;;;;;6.47;5.65;;;20.70;99.90;;;;;;7377083;19;20018;-62
2023/08/06 09:56:55;;;;;;;6.65;6.05;;;20.80;99.90;;;;;;7373103;19;20048;-62
2023/08/06 09:59:23;;;;;;;5.97;5.38;;;21.00;99.90;;;;;;7373160;19;20019;-63
2023/08/06 10:01:50;;;;;;;7.78;6.18;;;21.00;99.90;;;;;;7374102;19;20851;-64
2023/08/06 10:04:17;;;;;;;11.02;5.85;;;21.20;99.90;;;;;;7372385;19;20364;-63
2023/08/06 10:06:47;;;;;;;5.93;5.05;;;21.20;99.90;;;;;;7370988;19;20035;-62
2023/08/06 10:09:14;;;;;;;7.50;6.73;;;21.30;99.90;;;;;;7375335;19;20078;-62
2023/08/06 10:11:43;;;;;;;5.25;4.72;;;21.50;99.90;;;;;;7372579;19;20018;-62
2023/08/06 10:14:30;;;;;;;8.98;7.63;;;21.50;99.90;;;;;;7373240;19;20494;-62
2023/08/06 10:16:59;;;;;;;14.35;12.95;;;21.50;99.90;;;;;;7372682;19;20409;-62
2023/08/06 10:19:27;;;;;;;6.00;4.70;;;21.70;99.90;;;;;;7374789;19;20014;-67
2023/08/06 10:22:17;;;;;;;6.15;4.57;;;22.00;99.90;;;;;;7371760;19;20512;-62
2023/08/06 10:24:48;;;;;;;10.20;8.80;;;22.10;99.90;;;;;;7367164;19;20488;-62
2023/08/06 10:27:35;;;;;;;4.53;3.90;;;22.30;99.90;;;;;;7366860;19;20022;-64
2023/08/06 10:30:28;;;;;;;5.47;4.70;;;22.30;99.90;;;;;;7370963;19;20033;-62
2023/08/06 10:32:57;;;;;;;10.40;9.32;;;22.30;99.90;;;;;;7367578;19;20419;-63
2023/08/06 10:35:49;;;;;;;6.22;4.15;;;22.50;99.90;;;;;;7371574;19;20470;-61
2023/08/06 10:38:15;;;;;;;;;;;22.50;99.90;;;;;;7367480;19;20604;-61
2023/08/06 10:40:54;;;;;;;7.38;6.43;;;22.40;99.90;;;;;;7371798;19;20381;-62
2023/08/06 10:43:26;;;;;;;6.65;4.72;;;22.60;99.90;;;;;;7370478;19;20498;-62
2023/08/06 10:45:53;;;;;;;7.95;7.18;;;22.80;99.90;;;;;;7370660;19;20031;-61
2023/08/06 10:48:39;;;;;;;4.47;2.92;;;23.00;99.90;;;;;;7366313;19;20015;-62
2023/08/06 10:51:10;;;;;;;13.75;12.40;;;23.10;99.90;;;;;;7367629;19;20431;-62
2023/08/06 10:53:37;;;;;;;8.40;6.32;;;23.50;99.90;;;;;;7364684;19;20029;-62
2023/08/06 10:56:25;;;;;;;11.13;9.48;;;24.10;99.90;;;;;;7367856;19;20018;-62
2023/08/06 10:58:54;;;;;;;8.50;6.90;;;24.70;99.90;;;;;;7364942;19;20581;-63
2023/08/06 11:01:22;;;;;;;6.85;3.13;;;25.00;99.90;;;;;;7369416;19;20033;-63
2023/08/06 11:03:50;;;;;;;14.50;12.98;;;25.20;99.90;;;;;;7368204;19;20054;-62
2023/08/06 11:06:21;;;;;;;17.17;15.35;;;25.60;99.90;;;;;;7366838;19;20014;-62
2023/08/06 11:08:54;;;;;;;9.38;8.45;;;25.50;99.90;;;;;;7370103;19;20078;-62
2023/08/06 11:11:22;;;;;;;28.40;25.52;;;25.40;99.90;;;;;;7367652;19;20033;-62
2023/08/06 11:13:50;;;;;;;4.30;2.75;;;25.40;99.90;;;;;;7371626;19;20590;-62
2023/08/06 11:16:19;;;;;;;39.78;35.97;;;25.80;99.90;;;;;;7368313;19;20034;-62
2023/08/06 11:18:47;;;;;;;9.80;8.85;;;26.00;99.90;;;;;;7370657;19;20022;-67
2023/08/06 11:21:13;;;;;;;14.45;13.00;;;26.00;99.90;;;;;;7365717;19;20010;-62
2023/08/06 11:23:41;;;;;;;4.53;3.33;;;25.40;99.90;;;;;;7370293;19;20022;-64
2023/08/06 11:26:07;;;;;;;4.22;3.03;;;24.70;99.90;;;;;;7370943;19;20018;-60
2023/08/06 11:28:34;;;;;;;9.50;8.05;;;24.40;99.90;;;;;;7368303;19;20015;-60
2023/08/06 11:31:02;;;;;;;4.97;2.45;;;24.10;99.90;;;;;;7369391;19;20406;-60
2023/08/06 11:33:29;;;;;;;12.27;10.48;;;23.90;99.90;;;;;;7368727;19;20015;-61
2023/08/06 11:35:58;;;;;;;8.75;5.30;;;23.70;99.90;;;;;;7367359;19;20014;-60
2023/08/06 11:38:30;;;;;;;7.15;3.85;;;23.60;99.90;;;;;;7369599;19;20010;-60
2023/08/06 11:40:56;;;;;;;5.45;4.55;;;23.30;99.90;;;;;;7368144;19;20022;-60
2023/08/06 11:43:22;;;;;;;5.47;4.78;;;23.40;99.90;;;;;;7368004;19;20082;-60
2023/08/06 11:45:53;;;;;;;6.22;4.97;;;23.20;99.90;;;;;;7365554;19;20433;-60
2023/08/06 11:48:19;;;;;;;9.65;5.65;;;23.00;99.90;;;;;;7369163;19;20014;-60
2023/08/06 11:50:46;;;;;;;5.38;2.28;;;22.90;99.90;;;;;;7366362;19;20379;-61
2023/08/06 11:53:14;;;;;;;4.32;2.58;;;22.80;99.90;;;;;;7367688;19;20014;-60
2023/08/06 11:55:41;;;;;;;8.52;4.13;;;22.70;99.90;;;;;;7369615;19;20431;-62
2023/08/06 11:58:07;;;;;;;4.45;3.28;;;22.60;99.90;;;;;;7367674;19;20018;-60
2023/08/06 12:00:33;;;;;;;4.65;1.98;;;22.70;99.90;;;;;;7371173;19;20028;-63
2023/08/06 12:03:00;;;;;;;3.45;2.17;;;22.80;99.90;;;;;;7368755;19;20042;-61
2023/08/06 12:05:31;;;;;;;16.35;13.98;;;22.80;99.90;;;;;;7372674;19;20494;-63
2023/08/06 12:08:00;;;;;;;3.60;2.03;;;22.90;99.90;;;;;;7375872;19;20433;-64
2023/08/06 12:10:28;;;;;;;16.98;15.20;;;23.00;99.90;;;;;;7376340;19;20018;-64
2023/08/06 12:12:54;;;;;;;11.10;8.18;;;22.90;99.90;;;;;;7371953;19;20030;-64
2023/08/06 12:15:21;;;;;;;14.60;12.95;;;23.00;99.90;;;;;;7368555;19;20046;-65
2023/08/06 12:17:47;;;;;;;12.35;11.00;;;23.00;99.90;;;;;;7374010;19;20022;-64
2023/08/06 12:20:15;;;;;;;7.97;6.88;;;22.90;99.90;;;;;;7377969;19;20017;-64
2023/08/06 12:22:41;;;;;;;3.05;1.92;;;23.00;99.90;;;;;;7378254;19;20096;-64
2023/08/06 12:25:12;;;;;;;12.30;11.02;;;23.10;99.90;;;;;;7377260;19;20038;-65
2023/08/06 12:27:41;;;;;;;6.57;5.63;;;24.20;99.90;;;;;;7373003;19;20082;-62
2023/08/06 12:30:09;;;;;;;7.45;6.68;;;24.80;99.90;;;;;;7373600;19;20014;-62
2023/08/06 12:32:35;;;;;;;4.22;1.90;;;24.40;99.90;;;;;;7374333;19;20031;-62
2023/08/06 12:35:02;;;;;;;18.05;16.35;;;24.10;99.90;;;;;;7375646;19;20019;-63